createdAt,value
2023-05-10T00:00:02.302Z,100969.31
2023-05-10T00:02:39.784Z,100964.06
2023-05-10T00:05:07.085Z,100949.44
2023-05-10T00:07:33.890Z,100965.84
2023-05-10T00:10:00.428Z,100958.91
2023-05-10T00:12:27.004Z,100950.25
2023-05-10T00:14:53.548Z,100967.53
2023-05-10T00:17:20.078Z,100965.81
2023-05-10T00:19:46.556Z,100950.25
2023-05-10T00:22:13.071Z,100963.22
2023-05-10T00:24:39.619Z,100962.34
2023-05-10T00:27:06.155Z,100962.34
2023-05-10T00:29:32.624Z,100974.47
2023-05-10T00:31:59.248Z,100964.09
2023-05-10T00:34:26.013Z,100972.75
2023-05-10T00:36:52.500Z,100963.22
2023-05-10T00:39:19.074Z,100969.28
2023-05-10T00:41:45.640Z,100969.28
2023-05-10T00:44:12.372Z,100972.72
2023-05-10T00:46:39.325Z,100977.91
2023-05-10T00:49:06.380Z,100975.31
2023-05-10T00:51:33.995Z,100959.75
2023-05-10T00:54:00.614Z,100979.63
2023-05-10T00:56:27.806Z,100976.19
2023-05-10T00:58:54.412Z,100970.97
2023-05-10T01:01:21.000Z,100964.94
2023-05-10T01:03:47.844Z,100975.31
2023-05-10T01:06:15.783Z,100976.19
2023-05-10T01:08:42.461Z,100968.41
2023-05-10T01:11:09.292Z,100987.41
2023-05-10T01:13:41.802Z,100985.69
2023-05-10T01:16:09.557Z,100984.88
2023-05-10T01:18:39.736Z,100978.84
2023-05-10T01:21:12.187Z,101000.41
2023-05-10T01:24:00.828Z,100990.09
2023-05-10T01:27:02.786Z,101004.78
2023-05-10T01:30:18.865Z,101003.91
2023-05-10T01:33:12.989Z,100994.38
2023-05-10T01:35:56.316Z,100997.03
2023-05-10T01:38:50.105Z,101007.44
2023-05-10T01:41:37.241Z,101003.13
2023-05-10T01:44:15.081Z,101002.28
2023-05-10T01:46:41.747Z,101000.56
2023-05-10T01:49:31.730Z,101004.06
2023-05-10T01:52:04.906Z,101010.97
2023-05-10T01:54:34.293Z,101011.84
2023-05-10T01:57:06.516Z,101011.88
2023-05-10T01:59:35.684Z,101023.13
2023-05-10T02:02:05.275Z,101015.38
2023-05-10T02:04:33.917Z,101005.84
2023-05-10T02:07:00.830Z,101024.88
2023-05-10T02:09:30.326Z,101024.03
2023-05-10T02:12:00.659Z,101020.59
2023-05-10T02:14:28.370Z,101019.72
2023-05-10T02:16:56.931Z,101025.78
2023-05-10T02:19:25.898Z,101032.69
2023-05-10T02:21:53.153Z,101033.56
2023-05-10T02:24:21.412Z,101030.94
2023-05-10T02:26:50.619Z,101042.19
2023-05-10T02:29:18.116Z,101037.88
2023-05-10T02:31:46.219Z,101026.63
2023-05-10T02:34:13.741Z,101030.94
2023-05-10T02:36:42.392Z,101036.13
2023-05-10T02:39:10.034Z,101029.19
2023-05-10T02:41:38.829Z,101035.22
2023-05-10T02:44:08.179Z,101035.19
2023-05-10T02:46:35.053Z,101051.56
2023-05-10T02:49:02.696Z,101044.66
2023-05-10T02:51:32.532Z,101042.03
2023-05-10T02:54:06.319Z,101041.13
2023-05-10T02:56:35.438Z,101056.69
2023-05-10T02:59:02.122Z,101051.47
2023-05-10T03:01:28.776Z,101056.63
2023-05-10T03:03:55.344Z,101051.44
2023-05-10T03:06:21.937Z,101057.44
2023-05-10T03:08:48.571Z,101057.41
2023-05-10T03:11:21.136Z,101069.53
2023-05-10T03:13:56.687Z,101073.84
2023-05-10T03:16:30.360Z,101065.19
2023-05-10T03:19:42.129Z,101068.59
2023-05-10T03:22:11.649Z,101063.41
2023-05-10T03:24:42.385Z,101067.66
2023-05-10T03:27:11.434Z,101065.91
2023-05-10T03:29:40.154Z,101057.25
2023-05-10T03:32:07.315Z,101067.63
2023-05-10T03:34:33.994Z,101065.91
2023-05-10T03:37:00.769Z,101064.16
2023-05-10T03:39:30.559Z,101065.00
2023-05-10T03:41:59.835Z,101069.34
2023-05-10T03:44:26.324Z,101064.09
2023-05-10T03:46:53.057Z,101064.09
2023-05-10T03:49:19.822Z,101075.31
2023-05-10T03:51:46.473Z,101072.72
2023-05-10T03:54:13.025Z,101063.19
2023-05-10T03:56:39.572Z,101070.06
2023-05-10T03:59:06.808Z,101081.31
2023-05-10T04:01:33.369Z,101068.31
2023-05-10T04:03:59.930Z,101081.28
2023-05-10T04:06:26.548Z,101081.28
2023-05-10T04:08:54.841Z,101076.91
2023-05-10T04:11:21.378Z,101074.31
2023-05-10T04:13:47.862Z,101063.91
2023-05-10T04:16:14.431Z,101082.91
2023-05-10T04:18:40.997Z,101072.53
2023-05-10T04:21:16.593Z,101084.63
2023-05-10T04:23:43.122Z,101093.28
2023-05-10T04:26:09.766Z,101090.63
2023-05-10T04:28:36.459Z,101082.88
2023-05-10T04:31:08.071Z,101095.81
2023-05-10T04:33:35.092Z,101080.22
2023-05-10T04:36:01.909Z,101085.41
2023-05-10T04:38:28.871Z,101083.69
2023-05-10T04:40:55.434Z,101100.09
2023-05-10T04:43:21.964Z,101097.47
2023-05-10T04:45:48.472Z,101087.13
2023-05-10T04:48:15.024Z,101088.00
2023-05-10T04:50:41.519Z,101094.91
2023-05-10T04:53:08.059Z,101099.22
2023-05-10T04:55:34.673Z,101095.75
2023-05-10T04:58:01.202Z,101119.13
2023-05-10T05:00:27.694Z,101100.97
2023-05-10T05:02:55.959Z,101095.81
2023-05-10T05:05:22.539Z,101110.50
2023-05-10T05:07:49.030Z,101111.41
2023-05-10T05:10:15.880Z,101110.53
2023-05-10T05:12:42.762Z,101114.88
2023-05-10T05:15:09.928Z,101113.13
2023-05-10T05:17:36.600Z,101133.03
2023-05-10T05:20:03.403Z,101141.66
2023-05-10T05:22:29.924Z,101133.06
2023-05-10T05:24:57.587Z,101144.28
2023-05-10T05:27:24.088Z,101142.56
2023-05-10T05:29:54.880Z,101144.34
2023-05-10T05:32:21.616Z,101151.25
2023-05-10T05:34:48.798Z,101153.03
2023-05-10T05:37:16.477Z,101149.56
2023-05-10T05:39:43.705Z,101159.09
2023-05-10T05:42:11.089Z,101160.84
2023-05-10T05:44:37.642Z,101177.28
2023-05-10T05:47:04.448Z,101170.38
2023-05-10T05:49:31.052Z,101170.44
2023-05-10T05:52:01.689Z,101177.38
2023-05-10T05:54:28.507Z,101160.94
2023-05-10T05:56:56.143Z,101173.09
2023-05-10T05:59:22.705Z,101180.03
2023-05-10T06:01:49.413Z,101173.09
2023-05-10T06:04:16.590Z,101186.09
2023-05-10T06:06:43.351Z,101182.63
2023-05-10T06:09:10.282Z,101175.72
2023-05-10T06:11:37.527Z,101192.16
2023-05-10T06:14:05.307Z,101175.72
2023-05-10T06:16:32.230Z,101193.91
2023-05-10T06:18:58.852Z,101198.25
2023-05-10T06:21:25.392Z,101193.91
2023-05-10T06:23:52.281Z,101205.16
2023-05-10T06:26:18.772Z,101191.31
2023-05-10T06:28:45.246Z,101199.09
2023-05-10T06:31:11.778Z,101198.22
2023-05-10T06:33:38.419Z,101199.09
2023-05-10T06:36:05.063Z,101206.03
2023-05-10T06:38:31.686Z,101202.59
2023-05-10T06:40:58.174Z,101219.06
2023-05-10T06:43:24.874Z,101219.06
2023-05-10T06:45:51.505Z,101212.22
2023-05-10T06:48:18.266Z,101219.97
2023-05-10T06:50:44.857Z,101221.81
2023-05-10T06:53:11.472Z,101213.16
2023-05-10T06:55:38.048Z,101211.44
2023-05-10T06:58:04.596Z,101226.19
2023-05-10T07:00:31.196Z,101228.81
2023-05-10T07:02:57.820Z,101223.66
2023-05-10T07:05:24.442Z,101222.81
2023-05-10T07:07:51.144Z,101233.25
2023-05-10T07:10:17.638Z,101228.94
2023-05-10T07:12:44.496Z,101228.97
2023-05-10T07:15:11.421Z,101231.56
2023-05-10T07:17:38.024Z,101228.13
2023-05-10T07:20:05.057Z,101230.72
2023-05-10T07:22:32.063Z,101223.81
2023-05-10T07:24:58.824Z,101229.03
2023-05-10T07:27:25.337Z,101229.03
2023-05-10T07:29:51.837Z,101234.25
2023-05-10T07:32:18.368Z,101222.13
2023-05-10T07:34:44.864Z,101230.78
2023-05-10T07:37:11.392Z,101237.69
2023-05-10T07:39:38.146Z,101235.13
2023-05-10T07:42:04.696Z,101236.00
2023-05-10T07:44:31.230Z,101224.72
2023-05-10T07:46:57.792Z,101230.81
2023-05-10T07:49:24.287Z,101235.97
2023-05-10T07:51:50.959Z,101232.50
2023-05-10T07:54:17.496Z,101237.69
2023-05-10T07:56:44.507Z,101232.47
2023-05-10T07:59:12.695Z,101226.38
2023-05-10T08:01:39.447Z,101242.81
2023-05-10T08:04:06.068Z,101235.84
2023-05-10T08:06:32.700Z,101245.34
2023-05-10T08:08:59.291Z,101235.81
2023-05-10T08:11:26.181Z,101240.06
2023-05-10T08:13:52.830Z,101225.31
2023-05-10T08:16:19.522Z,101247.78
2023-05-10T08:18:46.941Z,101244.28
2023-05-10T08:21:14.457Z,101252.88
2023-05-10T08:23:41.007Z,101228.63
2023-05-10T08:26:07.741Z,101239.81
2023-05-10T08:28:34.213Z,101241.47
2023-05-10T08:31:00.746Z,101248.34
2023-05-10T08:33:27.258Z,101232.66
2023-05-10T08:35:53.833Z,101251.63
2023-05-10T08:38:20.318Z,101253.31
2023-05-10T08:40:50.305Z,101249.81
2023-05-10T08:43:16.861Z,101248.91
2023-05-10T08:45:45.287Z,101254.84
2023-05-10T08:48:12.238Z,101252.22
2023-05-10T08:50:40.824Z,101247.72
2023-05-10T08:53:12.930Z,101252.84
2023-05-10T08:55:40.575Z,101267.44
2023-05-10T08:58:07.813Z,101260.44
2023-05-10T09:00:34.838Z,101248.22
2023-05-10T09:03:02.556Z,101268.06
2023-05-10T09:05:29.479Z,101265.19
2023-05-10T09:07:56.301Z,101261.59
2023-05-10T09:10:23.875Z,101276.34
2023-05-10T09:12:51.283Z,101266.69
2023-05-10T09:15:18.479Z,101259.63
2023-05-10T09:17:45.705Z,101266.31
2023-05-10T09:20:12.408Z,101255.66
2023-05-10T09:22:38.935Z,101259.06
2023-05-10T09:25:05.568Z,101264.84
2023-05-10T09:27:32.105Z,101275.88
2023-05-10T09:29:58.602Z,101263.28
2023-05-10T09:32:58.899Z,101269.81
2023-05-10T09:35:29.670Z,101269.91
2023-05-10T09:38:05.436Z,101275.09
2023-05-10T09:40:32.667Z,101267.84
2023-05-10T09:43:02.156Z,101271.16
2023-05-10T09:45:34.591Z,101260.53
2023-05-10T09:48:03.667Z,101270.66
2023-05-10T09:50:31.095Z,101262.97
2023-05-10T09:52:59.809Z,101256.38
2023-05-10T09:55:47.914Z,101256.72
2023-05-10T09:58:14.998Z,101261.59
2023-05-10T10:00:43.115Z,101266.63
2023-05-10T10:03:17.878Z,101275.09
2023-05-10T10:05:45.722Z,101259.19
2023-05-10T10:08:13.178Z,101257.94
2023-05-10T10:10:40.396Z,101265.59
2023-05-10T10:13:07.968Z,101261.56
2023-05-10T10:15:37.115Z,101259.81
2023-05-10T10:18:04.333Z,101264.63
2023-05-10T10:20:30.960Z,101263.81
2023-05-10T10:22:57.494Z,101263.66
2023-05-10T10:25:24.336Z,101256.09
2023-05-10T10:27:53.917Z,101260.25
2023-05-10T10:30:37.765Z,101268.97
2023-05-10T10:33:13.242Z,101269.34
2023-05-10T10:35:45.828Z,101257.16
2023-05-10T10:38:13.803Z,101257.75
2023-05-10T10:40:40.433Z,101264.44
2023-05-10T10:43:26.740Z,101261.75
2023-05-10T10:46:12.096Z,101274.88
2023-05-10T10:48:38.826Z,101266.63
2023-05-10T10:51:05.355Z,101262.09
2023-05-10T10:53:32.764Z,101246.63
2023-05-10T10:56:13.842Z,101253.84
2023-05-10T10:58:40.853Z,101254.75
2023-05-10T11:01:12.056Z,101258.81
2023-05-10T11:03:40.797Z,101242.63
2023-05-10T11:06:07.524Z,101246.66
2023-05-10T11:08:42.156Z,101256.38
2023-05-10T11:11:08.832Z,101247.69
2023-05-10T11:13:38.408Z,101254.66
2023-05-10T11:16:25.135Z,101244.03
2023-05-10T11:19:03.184Z,101254.41
2023-05-10T11:21:31.345Z,101251.91
2023-05-10T11:23:59.517Z,101243.19
2023-05-10T11:26:36.391Z,101258.97
2023-05-10T11:29:03.487Z,101233.72
2023-05-10T11:31:30.532Z,101245.34
2023-05-10T11:33:59.851Z,101245.41
2023-05-10T11:36:33.533Z,101244.63
2023-05-10T11:39:00.317Z,101248.53
2023-05-10T11:41:31.184Z,101250.53
2023-05-10T11:43:58.756Z,101238.72
2023-05-10T11:46:27.329Z,101246.72
2023-05-10T11:48:58.105Z,101241.91
2023-05-10T11:51:25.949Z,101235.28
2023-05-10T11:53:54.928Z,101245.78
2023-05-10T11:56:22.758Z,101235.75
2023-05-10T11:58:57.717Z,101239.13
2023-05-10T12:01:28.592Z,101241.09
2023-05-10T12:03:57.133Z,101234.47
2023-05-10T12:06:26.946Z,101229.47
2023-05-10T12:08:53.619Z,101233.28
2023-05-10T12:11:20.328Z,101233.63
2023-05-10T12:13:46.863Z,101221.78
2023-05-10T12:16:15.036Z,101235.91
2023-05-10T12:18:42.257Z,101231.25
2023-05-10T12:21:10.913Z,101238.50
2023-05-10T12:23:37.474Z,101226.69
2023-05-10T12:26:04.696Z,101226.78
2023-05-10T12:28:32.686Z,101234.28
2023-05-10T12:31:00.839Z,101236.38
2023-05-10T12:33:27.323Z,101233.34
2023-05-10T12:35:55.584Z,101229.88
2023-05-10T12:38:42.540Z,101234.53
2023-05-10T12:41:11.358Z,101233.38
2023-05-10T12:43:38.815Z,101248.00
2023-05-10T12:46:09.305Z,101235.41
2023-05-10T12:48:37.192Z,101233.03
2023-05-10T12:51:05.312Z,101242.59
2023-05-10T12:53:31.933Z,101231.50
2023-05-10T12:55:58.534Z,101231.34
2023-05-10T12:58:34.798Z,101227.78
2023-05-10T13:01:02.714Z,101230.28
2023-05-10T13:03:29.243Z,101242.81
2023-05-10T13:05:55.754Z,101232.88
2023-05-10T13:08:22.308Z,101237.53
2023-05-10T13:10:49.145Z,101227.53
2023-05-10T13:13:16.285Z,101229.53
2023-05-10T13:15:42.895Z,101227.09
2023-05-10T13:18:09.461Z,101242.06
2023-05-10T13:20:36.041Z,101240.53
2023-05-10T13:23:02.613Z,101233.00
2023-05-10T13:25:29.344Z,101241.06
2023-05-10T13:27:55.843Z,101248.22
2023-05-10T13:30:22.436Z,101244.38
2023-05-10T13:32:49.592Z,101264.94
2023-05-10T13:35:16.500Z,101251.78
2023-05-10T13:37:43.077Z,101259.84
2023-05-10T13:40:10.157Z,101253.78
2023-05-10T13:42:36.712Z,101242.25
2023-05-10T13:45:03.424Z,101246.63
2023-05-10T13:47:30.371Z,101236.22
2023-05-10T13:49:56.933Z,101235.59
2023-05-10T13:52:23.726Z,101239.81
2023-05-10T13:54:50.373Z,101247.63
2023-05-10T13:57:16.899Z,101233.19
2023-05-10T13:59:43.434Z,101238.13
2023-05-10T14:02:10.035Z,101225.97
2023-05-10T14:04:36.994Z,101236.88
2023-05-10T14:07:03.676Z,101231.88
2023-05-10T14:09:30.218Z,101228.78
2023-05-10T14:11:56.926Z,101227.84
2023-05-10T14:14:23.686Z,101237.13
2023-05-10T14:16:50.263Z,101227.69
2023-05-10T14:19:17.165Z,101217.56
2023-05-10T14:21:43.777Z,101221.28
2023-05-10T14:24:10.278Z,101224.00
2023-05-10T14:26:36.838Z,101214.53
2023-05-10T14:29:03.366Z,101218.69
2023-05-10T14:31:29.947Z,101208.59
2023-05-10T14:33:56.649Z,101221.63
2023-05-10T14:36:23.200Z,101216.94
2023-05-10T14:38:49.721Z,101209.56
2023-05-10T14:41:16.742Z,101207.97
2023-05-10T14:43:43.299Z,101217.28
2023-05-10T14:46:09.854Z,101213.59
2023-05-10T14:48:36.487Z,101214.63
2023-05-10T14:51:03.116Z,101219.38
2023-05-10T14:53:29.860Z,101217.34
2023-05-10T14:55:56.703Z,101219.97
2023-05-10T14:58:23.204Z,101211.47
2023-05-10T15:00:49.761Z,101215.97
2023-05-10T15:03:16.909Z,101215.22
2023-05-10T15:05:43.834Z,101211.97
2023-05-10T15:08:10.370Z,101202.34
2023-05-10T15:10:36.939Z,101207.84
2023-05-10T15:13:05.009Z,101196.56
2023-05-10T15:15:31.921Z,101190.56
2023-05-10T15:17:58.728Z,101197.28
2023-05-10T15:20:25.265Z,101204.44
2023-05-10T15:22:51.933Z,101188.03
2023-05-10T15:25:18.573Z,101199.50
2023-05-10T15:27:45.398Z,101197.13
2023-05-10T15:30:12.296Z,101198.28
2023-05-10T15:32:38.779Z,101198.88
2023-05-10T15:35:06.351Z,101204.00
2023-05-10T15:37:32.949Z,101204.34
2023-05-10T15:39:59.593Z,101199.44
2023-05-10T15:42:26.160Z,101212.69
2023-05-10T15:44:52.629Z,101211.34
2023-05-10T15:47:19.165Z,101214.38
2023-05-10T15:49:45.804Z,101222.72
2023-05-10T15:52:12.385Z,101214.03
2023-05-10T15:54:39.325Z,101211.78
2023-05-10T15:57:06.181Z,101215.00
2023-05-10T15:59:33.008Z,101221.69
2023-05-10T16:01:59.643Z,101231.16
2023-05-10T16:04:26.267Z,101217.03
2023-05-10T16:06:53.019Z,101220.41
2023-05-10T16:09:19.618Z,101227.13
2023-05-10T16:11:46.198Z,101227.69
2023-05-10T16:14:12.727Z,101207.31
2023-05-10T16:16:39.415Z,101229.59
2023-05-10T16:19:08.470Z,101226.72
2023-05-10T16:21:35.121Z,101235.47
2023-05-10T16:24:03.227Z,101251.38
2023-05-10T16:26:30.022Z,101236.03
2023-05-10T16:28:56.571Z,101241.88
2023-05-10T16:31:23.411Z,101244.66
2023-05-10T16:33:50.040Z,101236.94
2023-05-10T16:36:16.849Z,101253.03
2023-05-10T16:38:43.729Z,101257.19
2023-05-10T16:41:10.220Z,101250.97
2023-05-10T16:43:36.989Z,101254.13
2023-05-10T16:46:10.139Z,101272.88
2023-05-10T16:48:36.788Z,101272.41
2023-05-10T16:51:03.434Z,101282.38
2023-05-10T16:53:30.798Z,101295.00
2023-05-10T16:55:57.395Z,101274.50
2023-05-10T16:58:24.059Z,101293.69
2023-05-10T17:00:50.637Z,101289.44
2023-05-10T17:03:17.838Z,101293.13
2023-05-10T17:05:44.559Z,101295.69
2023-05-10T17:08:11.154Z,101284.41
2023-05-10T17:10:40.255Z,101286.97
2023-05-10T17:13:08.711Z,101297.44
2023-05-10T17:15:37.741Z,101294.16
2023-05-10T17:18:05.210Z,101283.81
2023-05-10T17:20:31.884Z,101289.91
2023-05-10T17:22:58.366Z,101290.00
2023-05-10T17:25:24.925Z,101291.88
2023-05-10T17:27:51.486Z,101295.41
2023-05-10T17:30:18.149Z,101285.09
2023-05-10T17:32:44.744Z,101300.75
2023-05-10T17:35:11.342Z,101289.56
2023-05-10T17:37:37.878Z,101284.50
2023-05-10T17:40:04.848Z,101289.78
2023-05-10T17:42:31.432Z,101295.19
2023-05-10T17:44:58.009Z,101289.16
2023-05-10T17:47:24.577Z,101291.03
2023-05-10T17:49:51.179Z,101270.41
2023-05-10T17:52:17.736Z,101284.38
2023-05-10T17:54:44.292Z,101275.75
2023-05-10T17:57:10.761Z,101290.56
2023-05-10T17:59:37.387Z,101299.28
2023-05-10T18:02:04.000Z,101294.19
2023-05-10T18:04:30.559Z,101293.41
2023-05-10T18:06:57.200Z,101286.53
2023-05-10T18:09:23.738Z,101292.59
2023-05-10T18:11:50.272Z,101301.25
2023-05-10T18:14:28.228Z,101302.19
2023-05-10T18:17:02.974Z,101310.03
2023-05-10T18:19:29.460Z,101313.53
2023-05-10T18:21:56.057Z,101314.47
2023-05-10T18:24:30.563Z,101315.41
2023-05-10T18:27:04.689Z,101320.66
2023-05-10T18:29:31.423Z,101315.44
2023-05-10T18:32:06.666Z,101319.91
2023-05-10T18:34:33.239Z,101313.97
2023-05-10T18:36:59.856Z,101317.47
2023-05-10T18:39:26.546Z,101321.09
2023-05-10T18:41:53.177Z,101322.94
2023-05-10T18:44:19.706Z,101328.28
2023-05-10T18:46:46.538Z,101318.88
2023-05-10T18:49:13.462Z,101326.78
2023-05-10T18:51:40.002Z,101334.69
2023-05-10T18:54:06.512Z,101325.22
2023-05-10T18:56:33.046Z,101317.47
2023-05-10T18:58:59.549Z,101327.06
2023-05-10T19:01:26.155Z,101319.28
2023-05-10T19:03:52.744Z,101334.06
2023-05-10T19:06:19.241Z,101334.09
2023-05-10T19:08:46.029Z,101335.88
2023-05-10T19:11:12.505Z,101328.09
2023-05-10T19:13:39.144Z,101322.94
2023-05-10T19:16:12.821Z,101335.06
2023-05-10T19:18:41.099Z,101334.22
2023-05-10T19:21:08.044Z,101342.94
2023-05-10T19:23:35.000Z,101346.41
2023-05-10T19:26:01.713Z,101337.75
2023-05-10T19:28:28.232Z,101349.06
2023-05-10T19:30:55.046Z,101348.22
2023-05-10T19:33:21.626Z,101362.09
2023-05-10T19:35:50.395Z,101356.06
2023-05-10T19:38:16.958Z,101368.22
2023-05-10T19:40:45.087Z,101362.16
2023-05-10T19:43:11.588Z,101361.34
2023-05-10T19:45:39.721Z,101373.47
2023-05-10T19:48:06.622Z,101368.31
2023-05-10T19:50:33.432Z,101378.69
2023-05-10T19:53:00.017Z,101375.25
2023-05-10T19:55:31.708Z,101376.13
2023-05-10T19:57:58.698Z,101380.44
2023-05-10T20:00:25.556Z,101382.19
2023-05-10T20:02:52.187Z,101382.19
2023-05-10T20:05:18.878Z,101382.19
2023-05-10T20:07:45.625Z,101374.41
2023-05-10T20:10:12.205Z,101379.59
2023-05-10T20:12:38.910Z,101386.53
2023-05-10T20:15:07.526Z,101393.50
2023-05-10T20:17:35.203Z,101392.63
2023-05-10T20:20:02.002Z,101390.91
2023-05-10T20:22:28.570Z,101388.31
2023-05-10T20:24:56.257Z,101391.78
2023-05-10T20:27:22.948Z,101384.00
2023-05-10T20:29:49.678Z,101397.00
2023-05-10T20:32:16.455Z,101390.06
2023-05-10T20:34:43.249Z,101396.16
2023-05-10T20:37:09.776Z,101401.38
2023-05-10T20:39:36.285Z,101397.91
2023-05-10T20:42:02.784Z,101397.03
2023-05-10T20:44:29.278Z,101400.53
2023-05-10T20:46:55.863Z,101397.06
2023-05-10T20:49:22.366Z,101395.31
2023-05-10T20:51:48.897Z,101401.41
2023-05-10T20:54:15.352Z,101400.53
2023-05-10T20:56:41.876Z,101395.31
2023-05-10T20:59:08.357Z,101402.25
2023-05-10T21:01:34.858Z,101402.25
2023-05-10T21:04:01.339Z,101393.59
2023-05-10T21:06:27.813Z,101395.31
2023-05-10T21:08:54.353Z,101396.19
2023-05-10T21:11:20.931Z,101394.44
2023-05-10T21:13:47.434Z,101391.88
2023-05-10T21:16:13.988Z,101394.47
2023-05-10T21:18:40.528Z,101399.63
2023-05-10T21:21:07.131Z,101401.41
2023-05-10T21:23:34.676Z,101399.66
2023-05-10T21:26:03.543Z,101393.59
2023-05-10T21:28:30.200Z,101392.72
2023-05-10T21:30:56.715Z,101382.31
2023-05-10T21:33:23.334Z,101403.97
2023-05-10T21:35:49.970Z,101397.03
2023-05-10T21:38:16.482Z,101384.06
2023-05-10T21:40:43.027Z,101398.81
2023-05-10T21:43:09.563Z,101399.66
2023-05-10T21:45:36.204Z,101391.84
2023-05-10T21:48:03.017Z,101397.06
2023-05-10T21:50:29.716Z,101395.31
2023-05-10T21:52:57.280Z,101403.09
2023-05-10T21:55:23.907Z,101403.97
2023-05-10T21:57:51.195Z,101395.31
2023-05-10T22:00:18.157Z,101400.53
2023-05-10T22:02:45.385Z,101395.31
2023-05-10T22:05:12.174Z,101391.00
2023-05-10T22:07:38.718Z,101391.88
2023-05-10T22:10:05.720Z,101405.72
2023-05-10T22:12:32.243Z,101394.47
2023-05-10T22:15:09.281Z,101391.88
2023-05-10T22:17:38.422Z,101397.09
2023-05-10T22:20:09.041Z,101398.81
2023-05-10T22:22:35.661Z,101394.47
2023-05-10T22:25:02.409Z,101397.09
2023-05-10T22:27:28.900Z,101393.59
2023-05-10T22:29:56.355Z,101397.09
2023-05-10T22:32:22.950Z,101392.75
2023-05-10T22:34:50.619Z,101400.56
2023-05-10T22:37:17.351Z,101401.41
2023-05-10T22:39:45.477Z,101395.38
2023-05-10T22:42:12.183Z,101405.75
2023-05-10T22:44:38.747Z,101396.25
2023-05-10T22:47:05.276Z,101403.16
2023-05-10T22:49:32.194Z,101398.81
2023-05-10T22:51:58.816Z,101398.84
2023-05-10T22:54:25.364Z,101397.09
2023-05-10T22:56:51.994Z,101409.22
2023-05-10T22:59:20.028Z,101397.09
2023-05-10T23:01:46.628Z,101400.56
2023-05-10T23:04:13.124Z,101400.56
2023-05-10T23:06:39.688Z,101397.97
2023-05-10T23:09:06.258Z,101401.41
2023-05-10T23:11:32.816Z,101401.41
2023-05-10T23:13:59.292Z,101404.88
2023-05-10T23:16:25.870Z,101405.75
2023-05-10T23:18:52.416Z,101393.63
2023-05-10T23:21:19.017Z,101391.03
2023-05-10T23:23:45.538Z,101386.69
2023-05-10T23:26:12.138Z,101400.56
2023-05-10T23:28:38.615Z,101391.91
2023-05-10T23:31:05.163Z,101397.94
2023-05-10T23:33:31.691Z,101393.63
2023-05-10T23:35:58.239Z,101386.69
2023-05-10T23:38:24.796Z,101387.56
2023-05-10T23:40:51.858Z,101396.22
2023-05-10T23:43:18.349Z,101387.56
2023-05-10T23:45:52.713Z,101378.06
2023-05-10T23:48:19.465Z,101387.56
2023-05-10T23:50:46.018Z,101391.03
2023-05-10T23:53:12.568Z,101383.22
2023-05-10T23:55:39.089Z,101393.63
2023-05-10T23:58:05.635Z,101382.38
